createdAt,value
2018-04-18T00:00:13.373Z,9.10
2018-04-18T00:02:40.872Z,9.10
2018-04-18T00:05:08.467Z,9.10
2018-04-18T00:07:35.970Z,9.00
2018-04-18T00:10:03.587Z,9.00
2018-04-18T00:12:31.217Z,8.90
2018-04-18T00:14:58.745Z,9.00
2018-04-18T00:17:26.241Z,8.90
2018-04-18T00:19:53.762Z,8.90
2018-04-18T00:22:21.262Z,8.90
2018-04-18T00:24:48.786Z,8.90
2018-04-18T00:27:16.692Z,8.90
2018-04-18T00:29:44.201Z,8.90
2018-04-18T00:32:11.898Z,8.80
2018-04-18T00:34:39.425Z,8.70
2018-04-18T00:37:07.334Z,8.60
2018-04-18T00:39:34.893Z,8.60
2018-04-18T00:42:02.425Z,8.50
2018-04-18T00:44:29.950Z,8.50
2018-04-18T00:46:57.458Z,8.50
2018-04-18T00:49:24.982Z,8.50
2018-04-18T00:51:52.481Z,8.50
2018-04-18T00:54:20.013Z,8.50
2018-04-18T00:56:47.517Z,8.40
2018-04-18T00:59:15.021Z,8.30
2018-04-18T01:01:42.573Z,8.30
2018-04-18T01:04:10.081Z,8.20
2018-04-18T01:06:37.606Z,8.20
2018-04-18T01:09:05.989Z,8.20
2018-04-18T01:11:33.515Z,8.10
2018-04-18T01:14:01.078Z,8.00
2018-04-18T01:16:28.603Z,7.90
2018-04-18T01:18:56.504Z,7.80
2018-04-18T01:21:24.017Z,7.90
2018-04-18T01:23:51.517Z,7.90
2018-04-18T01:26:19.165Z,8.00
2018-04-18T01:28:47.033Z,7.90
2018-04-18T01:31:14.559Z,7.90
2018-04-18T01:33:42.449Z,7.80
2018-04-18T01:36:10.004Z,7.90
2018-04-18T01:38:37.663Z,7.90
2018-04-18T01:41:05.310Z,7.90
2018-04-18T01:43:32.821Z,7.80
2018-04-18T01:46:00.448Z,7.80
2018-04-18T01:48:28.308Z,7.80
2018-04-18T01:50:55.962Z,7.80
2018-04-18T01:53:23.489Z,7.80
2018-04-18T01:55:50.991Z,7.80
2018-04-18T01:58:18.715Z,7.70
2018-04-18T02:00:46.213Z,7.60
2018-04-18T02:03:13.831Z,7.60
2018-04-18T02:05:41.705Z,7.50
2018-04-18T02:08:09.289Z,7.50
2018-04-18T02:10:36.794Z,7.40
2018-04-18T02:13:04.317Z,7.40
2018-04-18T02:15:31.819Z,7.40
2018-04-18T02:17:59.344Z,7.30
2018-04-18T02:20:26.849Z,7.10
2018-04-18T02:22:54.378Z,7.10
2018-04-18T02:25:21.878Z,7.10
2018-04-18T02:27:49.369Z,7.10
2018-04-18T02:30:16.892Z,7.10
2018-04-18T02:32:44.515Z,7.10
2018-04-18T02:35:12.041Z,7.20
2018-04-18T02:37:39.943Z,7.10
2018-04-18T02:40:07.463Z,7.20
2018-04-18T02:42:35.553Z,7.20
2018-04-18T02:45:03.077Z,7.20
2018-04-18T02:47:30.977Z,7.30
2018-04-18T02:49:58.494Z,7.30
2018-04-18T02:52:26.190Z,7.30
2018-04-18T02:54:53.717Z,7.30
2018-04-18T02:57:21.617Z,7.20
2018-04-18T02:59:49.137Z,7.30
2018-04-18T03:02:16.641Z,7.20
2018-04-18T03:04:44.142Z,7.20
2018-04-18T03:07:12.073Z,7.10
2018-04-18T03:09:39.561Z,7.10
2018-04-18T03:12:07.259Z,7.00
2018-04-18T03:14:34.798Z,6.80
2018-04-18T03:17:02.326Z,6.70
2018-04-18T03:19:29.827Z,6.70
2018-04-18T03:21:57.349Z,6.70
2018-04-18T03:24:25.252Z,6.70
2018-04-18T03:26:52.790Z,6.80
2018-04-18T03:29:20.298Z,6.70
2018-04-18T03:31:47.793Z,6.70
2018-04-18T03:34:15.320Z,6.50
2018-04-18T03:36:42.822Z,6.40
2018-04-18T03:39:10.360Z,6.40
2018-04-18T03:41:38.248Z,6.40
2018-04-18T03:44:05.763Z,6.40
2018-04-18T03:46:33.261Z,6.40
2018-04-18T03:49:00.777Z,6.50
2018-04-18T03:51:28.769Z,6.50
2018-04-18T03:53:56.421Z,6.50
2018-04-18T03:56:24.098Z,6.40
2018-04-18T03:58:51.617Z,6.40
2018-04-18T04:01:19.619Z,6.50
2018-04-18T04:03:48.057Z,6.60
2018-04-18T04:06:15.568Z,6.60
2018-04-18T04:08:43.117Z,6.60
2018-04-18T04:11:10.674Z,6.60
2018-04-18T04:13:38.165Z,6.60
